sensor_id;sensor_type;location;lat;lon;timestamp;P1;durP1;ratioP1;P2;durP2;ratioP2
75858;SDS011;64504;51.308;8.620;2022-12-17T08:38:53;0.10;;;0.10;;
75858;SDS011;64504;51.308;8.620;2022-12-17T08:41:38;1.55;;;1.48;;
75858;SDS011;64504;51.308;8.620;2022-12-17T08:44:22;1.73;;;1.63;;
75858;SDS011;64504;51.308;8.620;2022-12-17T08:47:06;5.20;;;2.15;;
75858;SDS011;64504;51.308;8.620;2022-12-17T08:49:51;4.40;;;3.00;;
75858;SDS011;64504;51.308;8.620;2022-12-17T08:52:35;7.22;;;2.92;;
75858;SDS011;64504;51.308;8.620;2022-12-17T08:55:20;3.22;;;2.63;;
75858;SDS011;64504;51.308;8.620;2022-12-17T08:58:03;3.60;;;3.28;;
75858;SDS011;64504;51.308;8.620;2022-12-17T09:00:47;9.55;;;3.88;;
75858;SDS011;64504;51.308;8.620;2022-12-17T09:03:32;7.05;;;4.45;;
75858;SDS011;64504;51.308;8.620;2022-12-17T09:06:16;7.65;;;2.72;;
75858;SDS011;64504;51.308;8.620;2022-12-17T09:09:00;6.30;;;3.92;;
75858;SDS011;64504;51.308;8.620;2022-12-17T09:50:42;3.00;;;2.70;;
75858;SDS011;64504;51.308;8.620;2022-12-17T09:53:37;3.75;;;2.85;;
75858;SDS011;64504;51.308;8.620;2022-12-17T09:56:23;2.63;;;2.42;;
75858;SDS011;64504;51.308;8.620;2022-12-17T09:59:44;3.28;;;2.53;;
75858;SDS011;64504;51.308;8.620;2022-12-17T10:02:26;2.53;;;2.25;;
75858;SDS011;64504;51.308;8.620;2022-12-17T10:05:23;1.92;;;1.80;;
75858;SDS011;64504;51.308;8.620;2022-12-17T10:08:12;2.92;;;2.40;;
75858;SDS011;64504;51.308;8.620;2022-12-17T10:11:00;2.05;;;1.85;;
75858;SDS011;64504;51.308;8.620;2022-12-17T10:13:54;8.32;;;2.65;;
75858;SDS011;64504;51.308;8.620;2022-12-17T10:16:41;4.45;;;2.58;;
75858;SDS011;64504;51.308;8.620;2022-12-17T10:19:28;5.13;;;2.97;;
75858;SDS011;64504;51.308;8.620;2022-12-17T10:22:15;2.85;;;2.58;;
75858;SDS011;64504;51.308;8.620;2022-12-17T10:25:20;8.88;;;4.25;;
75858;SDS011;64504;51.308;8.620;2022-12-17T10:28:06;7.20;;;2.47;;
75858;SDS011;64504;51.308;8.620;2022-12-17T10:30:54;8.57;;;2.50;;
75858;SDS011;64504;51.308;8.620;2022-12-17T10:33:38;4.15;;;2.88;;
75858;SDS011;64504;51.308;8.620;2022-12-17T10:36:24;5.78;;;2.28;;
75858;SDS011;64504;51.308;8.620;2022-12-17T10:39:15;5.60;;;2.42;;
75858;SDS011;64504;51.308;8.620;2022-12-17T10:42:01;8.55;;;3.55;;
75858;SDS011;64504;51.308;8.620;2022-12-17T10:44:46;4.05;;;2.53;;
75858;SDS011;64504;51.308;8.620;2022-12-17T10:47:32;3.42;;;2.13;;
75858;SDS011;64504;51.308;8.620;2022-12-17T10:53:22;4.60;;;2.45;;
75858;SDS011;64504;51.308;8.620;2022-12-17T10:56:15;4.07;;;2.92;;
75858;SDS011;64504;51.308;8.620;2022-12-17T10:59:09;4.68;;;1.65;;
75858;SDS011;64504;51.308;8.620;2022-12-17T11:01:56;1.00;;;0.60;;
75858;SDS011;64504;51.308;8.620;2022-12-17T11:07:34;2.47;;;0.85;;
75858;SDS011;64504;51.308;8.620;2022-12-17T11:10:22;0.75;;;0.75;;
75858;SDS011;64504;51.308;8.620;2022-12-17T11:16:09;1.10;;;1.00;;
75858;SDS011;64504;51.308;8.620;2022-12-17T11:21:55;1.85;;;1.48;;
75858;SDS011;64504;51.308;8.620;2022-12-17T11:24:56;1.65;;;1.00;;
75858;SDS011;64504;51.308;8.620;2022-12-17T11:27:47;1.73;;;1.05;;
75858;SDS011;64504;51.308;8.620;2022-12-17T11:30:43;0.82;;;0.80;;
75858;SDS011;64504;51.308;8.620;2022-12-17T11:33:37;0.70;;;0.63;;
75858;SDS011;64504;51.308;8.620;2022-12-17T11:36:28;3.47;;;1.35;;
75858;SDS011;64504;51.308;8.620;2022-12-17T11:39:33;0.63;;;0.63;;
75858;SDS011;64504;51.308;8.620;2022-12-17T11:42:33;0.70;;;0.70;;
